createdAt,value
2019-02-19T00:01:57.804Z,98957.64
2019-02-19T00:04:26.711Z,98959.52
2019-02-19T00:06:55.508Z,98957.62
2019-02-19T00:09:24.288Z,98963.08
2019-02-19T00:11:53.165Z,98964.76
2019-02-19T00:14:21.984Z,98952.13
2019-02-19T00:16:50.788Z,98949.55
2019-02-19T00:19:19.643Z,98958.89
2019-02-19T00:21:48.418Z,98964.11
2019-02-19T00:24:17.254Z,98958.14
2019-02-19T00:26:46.101Z,98960.33
2019-02-19T00:29:14.900Z,98958.79
2019-02-19T00:31:43.687Z,98956.86
2019-02-19T00:34:12.479Z,98964.37
2019-02-19T00:36:41.475Z,98959.41
2019-02-19T00:39:10.521Z,98954.00
2019-02-19T00:41:39.288Z,98961.70
2019-02-19T00:44:08.451Z,98960.30
2019-02-19T00:46:37.358Z,98960.88
2019-02-19T00:49:06.305Z,98967.39
2019-02-19T00:51:35.126Z,98958.42
2019-02-19T00:54:03.923Z,98957.03
2019-02-19T00:56:32.706Z,98959.17
2019-02-19T00:59:01.498Z,98956.37
2019-02-19T01:01:30.382Z,98959.20
2019-02-19T01:03:59.186Z,98962.48
2019-02-19T01:06:28.046Z,98957.44
2019-02-19T01:08:56.925Z,98952.70
2019-02-19T01:11:25.985Z,98958.61
2019-02-19T01:13:54.985Z,98963.58
2019-02-19T01:16:23.867Z,98967.54
2019-02-19T01:18:52.760Z,98961.40
2019-02-19T01:21:21.784Z,98962.63
2019-02-19T01:23:50.580Z,98960.69
2019-02-19T01:26:19.525Z,98962.28
2019-02-19T01:28:48.346Z,98962.09
2019-02-19T01:31:17.214Z,98963.81
2019-02-19T01:33:46.124Z,98955.47
2019-02-19T01:36:14.915Z,98955.36
2019-02-19T01:38:43.714Z,98956.89
2019-02-19T01:41:12.493Z,98951.57
2019-02-19T01:43:41.279Z,98946.45
2019-02-19T01:46:10.940Z,98951.10
2019-02-19T01:48:39.747Z,98946.59
2019-02-19T01:51:08.551Z,98948.34
2019-02-19T01:53:37.350Z,98941.63
2019-02-19T01:56:06.294Z,98943.20
2019-02-19T01:58:35.091Z,98932.29
2019-02-19T02:01:03.948Z,98936.48
2019-02-19T02:03:32.742Z,98935.94
2019-02-19T02:06:01.533Z,98933.38
2019-02-19T02:08:30.536Z,98929.64
2019-02-19T02:10:59.411Z,98926.63
2019-02-19T02:13:28.264Z,98925.91
2019-02-19T02:15:57.044Z,98920.05
2019-02-19T02:18:25.831Z,98934.69
2019-02-19T02:20:54.686Z,98932.63
2019-02-19T02:23:23.533Z,98935.56
2019-02-19T02:25:52.423Z,98933.98
2019-02-19T02:28:21.208Z,98932.77
2019-02-19T02:30:50.036Z,98938.86
2019-02-19T02:33:18.815Z,98936.41
2019-02-19T02:35:47.612Z,98938.12
2019-02-19T02:38:16.400Z,98933.63
2019-02-19T02:40:45.200Z,98932.31
2019-02-19T02:43:14.080Z,98936.86
2019-02-19T02:45:52.996Z,98934.34
2019-02-19T02:48:14.144Z,98942.69
2019-02-19T02:50:43.873Z,98938.58
2019-02-19T02:53:12.662Z,98938.65
2019-02-19T02:55:41.467Z,98940.58
2019-02-19T02:58:10.330Z,98938.36
2019-02-19T03:00:39.119Z,98937.12
2019-02-19T03:03:08.007Z,98938.50
2019-02-19T03:05:39.562Z,98935.78
2019-02-19T03:08:08.560Z,98940.52
2019-02-19T03:10:37.362Z,98940.14
2019-02-19T03:13:06.152Z,98939.52
2019-02-19T03:15:35.129Z,98939.52
2019-02-19T03:18:03.909Z,98940.09
2019-02-19T03:20:32.714Z,98946.34
2019-02-19T03:23:01.504Z,98941.16
2019-02-19T03:25:30.308Z,98944.63
2019-02-19T03:27:59.115Z,98944.63
2019-02-19T03:30:27.989Z,98939.45
2019-02-19T03:32:57.960Z,98938.44
2019-02-19T03:35:26.845Z,98940.08
2019-02-19T03:37:55.715Z,98947.14
2019-02-19T03:40:24.588Z,98945.06
2019-02-19T03:42:53.451Z,98939.02
2019-02-19T03:45:22.255Z,98944.31
2019-02-19T03:47:51.039Z,98950.88
2019-02-19T03:50:19.849Z,98952.39
2019-02-19T03:52:48.647Z,98958.69
2019-02-19T03:55:17.531Z,98956.54
2019-02-19T03:57:46.974Z,98962.00
2019-02-19T04:00:15.840Z,98961.88
2019-02-19T04:02:44.711Z,98956.25
2019-02-19T04:05:13.692Z,98960.08
2019-02-19T04:07:42.482Z,98960.88
2019-02-19T04:10:11.374Z,98962.95
2019-02-19T04:12:40.195Z,98963.56
2019-02-19T04:15:09.076Z,98960.25
2019-02-19T04:17:38.034Z,98969.97
2019-02-19T04:20:07.789Z,98963.09
2019-02-19T04:22:36.726Z,98966.25
2019-02-19T04:25:05.981Z,98966.31
2019-02-19T04:27:34.781Z,98967.97
2019-02-19T04:30:03.707Z,98971.06
2019-02-19T04:32:32.475Z,98964.87
2019-02-19T04:35:01.275Z,98971.69
2019-02-19T04:37:30.207Z,98970.95
2019-02-19T04:39:59.036Z,98971.52
2019-02-19T04:42:27.838Z,98969.02
2019-02-19T04:44:56.644Z,98964.95
2019-02-19T04:47:25.439Z,98970.00
2019-02-19T04:49:54.251Z,98962.36
2019-02-19T04:52:23.043Z,98958.98
2019-02-19T04:54:52.184Z,98960.63
2019-02-19T04:57:20.988Z,98962.63
2019-02-19T04:59:49.767Z,98957.20
2019-02-19T05:02:18.625Z,98963.48
2019-02-19T05:04:47.427Z,98958.31
2019-02-19T05:07:16.224Z,98957.31
2019-02-19T05:09:45.439Z,98961.16
2019-02-19T05:12:14.253Z,98969.27
2019-02-19T05:14:43.042Z,98966.97
2019-02-19T05:17:11.843Z,98971.70
2019-02-19T05:19:40.717Z,98963.95
2019-02-19T05:22:09.638Z,98965.94
2019-02-19T05:24:38.420Z,98963.46
2019-02-19T05:27:07.225Z,98953.98
2019-02-19T05:29:36.066Z,98956.39
2019-02-19T05:32:05.048Z,98961.78
2019-02-19T05:34:33.876Z,98958.69
2019-02-19T05:37:02.672Z,98960.81
2019-02-19T05:39:31.465Z,98959.19
2019-02-19T05:42:00.269Z,98965.03
2019-02-19T05:44:29.191Z,98962.91
2019-02-19T05:46:57.984Z,98962.30
2019-02-19T05:49:26.836Z,98969.02
2019-02-19T05:51:55.629Z,98959.13
2019-02-19T05:54:24.504Z,98964.37
2019-02-19T05:56:53.290Z,98964.37
2019-02-19T05:59:22.221Z,98962.00
2019-02-19T06:01:51.125Z,98964.97
2019-02-19T06:04:20.035Z,98965.25
2019-02-19T06:06:48.907Z,98966.67
2019-02-19T06:09:17.701Z,98963.67
2019-02-19T06:11:46.523Z,98964.02
2019-02-19T06:14:15.351Z,98972.41
2019-02-19T06:16:44.136Z,98970.90
2019-02-19T06:19:12.954Z,98970.16
2019-02-19T06:21:41.826Z,98968.95
2019-02-19T06:24:10.616Z,98972.29
2019-02-19T06:26:39.411Z,98975.73
2019-02-19T06:29:08.197Z,98973.14
2019-02-19T06:31:37.103Z,98973.54
2019-02-19T06:34:05.976Z,98981.05
2019-02-19T06:36:34.777Z,98987.77
2019-02-19T06:39:04.464Z,98982.35
2019-02-19T06:41:33.320Z,98994.28
2019-02-19T06:44:02.124Z,98997.97
2019-02-19T06:46:30.984Z,98997.67
2019-02-19T06:48:59.803Z,99007.14
2019-02-19T06:51:28.772Z,99003.79
2019-02-19T06:53:57.946Z,99009.03
2019-02-19T06:56:26.803Z,99007.73
2019-02-19T06:58:55.609Z,99020.03
2019-02-19T07:01:42.374Z,99017.42
2019-02-19T07:04:17.586Z,99019.92
2019-02-19T07:06:46.367Z,99019.64
2019-02-19T07:09:15.173Z,99019.59
2019-02-19T07:11:43.973Z,99026.56
2019-02-19T07:14:12.798Z,99026.34
2019-02-19T07:16:41.580Z,99025.20
2019-02-19T07:19:10.368Z,99026.28
2019-02-19T07:21:39.166Z,99027.51
2019-02-19T07:24:07.973Z,99029.08
2019-02-19T07:26:36.787Z,99035.97
2019-02-19T07:29:05.651Z,99023.50
2019-02-19T07:31:34.462Z,99025.52
2019-02-19T07:34:03.340Z,99029.87
2019-02-19T07:36:32.136Z,99037.94
2019-02-19T07:39:00.945Z,99040.37
2019-02-19T07:41:29.753Z,99038.20
2019-02-19T07:43:58.568Z,99040.50
2019-02-19T07:46:27.354Z,99036.52
2019-02-19T07:48:56.137Z,99041.05
2019-02-19T07:51:24.936Z,99046.09
2019-02-19T07:53:53.722Z,99040.91
2019-02-19T07:56:23.176Z,99034.23
2019-02-19T07:58:51.973Z,99032.09
2019-02-19T08:01:20.771Z,99028.34
2019-02-19T08:03:49.581Z,99038.11
2019-02-19T08:06:18.436Z,99041.94
2019-02-19T08:08:47.231Z,99039.69
2019-02-19T08:11:16.122Z,99039.95
2019-02-19T08:13:44.910Z,99035.00
2019-02-19T08:16:13.709Z,99032.52
2019-02-19T08:18:42.501Z,99033.43
2019-02-19T08:21:11.297Z,99035.91
2019-02-19T08:23:40.104Z,99037.39
2019-02-19T08:26:09.087Z,99045.05
2019-02-19T08:28:37.894Z,99045.96
2019-02-19T08:31:06.690Z,99035.47
2019-02-19T08:33:35.503Z,99033.20
2019-02-19T08:36:04.363Z,99046.56
2019-02-19T08:38:33.164Z,99042.34
2019-02-19T08:41:02.277Z,99038.61
2019-02-19T08:43:31.721Z,99041.03
2019-02-19T08:46:00.652Z,99053.48
2019-02-19T08:48:29.463Z,99050.17
2019-02-19T08:50:58.318Z,99048.91
2019-02-19T08:53:27.118Z,99052.27
2019-02-19T08:55:55.909Z,99063.80
2019-02-19T08:58:25.042Z,99050.73
2019-02-19T09:00:53.846Z,99050.73
2019-02-19T09:03:22.680Z,99062.86
2019-02-19T09:05:51.474Z,99066.83
2019-02-19T09:08:20.248Z,99061.06
2019-02-19T09:10:49.044Z,99068.10
2019-02-19T09:13:17.827Z,99069.39
2019-02-19T09:15:46.822Z,99077.10
2019-02-19T09:18:15.672Z,99068.97
2019-02-19T09:20:44.459Z,99078.55
2019-02-19T09:23:13.265Z,99073.91
2019-02-19T09:25:42.050Z,99075.88
2019-02-19T09:28:10.828Z,99085.96
2019-02-19T09:30:39.789Z,99090.50
2019-02-19T09:33:08.642Z,99096.09
2019-02-19T09:35:37.707Z,99093.98
2019-02-19T09:38:06.572Z,99095.41
2019-02-19T09:40:35.447Z,99099.13
2019-02-19T09:43:04.444Z,99101.61
2019-02-19T09:45:36.324Z,99103.66
2019-02-19T09:48:05.271Z,99101.61
2019-02-19T09:50:34.169Z,99104.47
2019-02-19T09:53:03.019Z,99103.67
2019-02-19T09:55:31.927Z,99107.89
2019-02-19T09:58:00.798Z,99114.42
2019-02-19T10:00:29.668Z,99112.95
2019-02-19T10:02:58.460Z,99110.23
2019-02-19T10:05:27.348Z,99103.21
2019-02-19T10:07:56.124Z,99081.58
2019-02-19T10:10:25.007Z,99110.13
2019-02-19T10:12:53.810Z,99120.56
2019-02-19T10:15:22.754Z,99118.71
2019-02-19T10:17:51.557Z,99120.66
2019-02-19T10:20:20.454Z,99128.97
2019-02-19T10:22:49.237Z,99129.91
2019-02-19T10:25:18.022Z,99124.34
2019-02-19T10:27:46.804Z,99125.98
2019-02-19T10:30:15.901Z,99121.92
2019-02-19T10:32:44.675Z,99116.39
2019-02-19T10:35:13.615Z,99119.52
2019-02-19T10:37:42.465Z,99116.92
2019-02-19T10:40:13.351Z,99115.08
2019-02-19T10:42:42.216Z,99104.86
2019-02-19T10:45:13.675Z,99105.65
2019-02-19T10:47:42.533Z,99118.08
2019-02-19T10:50:11.978Z,99115.52
2019-02-19T10:52:40.826Z,99113.97
2019-02-19T10:55:09.808Z,99115.83
2019-02-19T10:57:38.783Z,99112.15
2019-02-19T11:00:11.119Z,99106.30
2019-02-19T11:02:39.989Z,99106.08
2019-02-19T11:05:09.478Z,99105.84
2019-02-19T11:07:38.398Z,99115.43
2019-02-19T11:10:08.731Z,99113.39
2019-02-19T11:12:37.601Z,99116.47
2019-02-19T11:15:06.854Z,99112.25
2019-02-19T11:17:35.751Z,99110.56
2019-02-19T11:20:04.834Z,99116.05
2019-02-19T11:22:33.887Z,99111.39
2019-02-19T11:25:02.655Z,99117.55
2019-02-19T11:27:31.448Z,99118.08
2019-02-19T11:30:00.325Z,99113.02
2019-02-19T11:32:29.112Z,99114.52
2019-02-19T11:34:57.882Z,99111.59
2019-02-19T11:37:26.675Z,99116.95
2019-02-19T11:39:55.446Z,99112.29
2019-02-19T11:42:24.247Z,99119.17
2019-02-19T11:44:53.064Z,99117.45
2019-02-19T11:47:26.574Z,99115.21
2019-02-19T11:49:52.430Z,99118.17
2019-02-19T11:52:21.246Z,99121.28
2019-02-19T11:54:50.021Z,99112.34
2019-02-19T11:57:18.805Z,99109.27
2019-02-19T11:59:47.609Z,99113.37
2019-02-19T12:02:17.104Z,99094.92
2019-02-19T12:04:45.915Z,99110.05
2019-02-19T12:07:14.706Z,99101.94
2019-02-19T12:09:43.535Z,99101.70
2019-02-19T12:12:12.473Z,99100.02
2019-02-19T12:14:41.252Z,99094.41
2019-02-19T12:17:10.044Z,99106.02
2019-02-19T12:19:38.898Z,99106.35
2019-02-19T12:22:07.839Z,99103.75
2019-02-19T12:24:36.660Z,99104.36
2019-02-19T12:27:08.283Z,99101.76
2019-02-19T12:29:35.932Z,99108.86
2019-02-19T12:32:04.803Z,99109.53
2019-02-19T12:34:33.600Z,99106.17
2019-02-19T12:37:02.721Z,99111.43
2019-02-19T12:39:31.497Z,99110.41
2019-02-19T12:42:00.298Z,99115.05
2019-02-19T12:44:29.074Z,99115.86
2019-02-19T12:46:57.861Z,99115.59
2019-02-19T12:49:26.638Z,99116.00
2019-02-19T12:51:55.626Z,99110.34
2019-02-19T12:54:24.476Z,99118.22
2019-02-19T12:56:53.272Z,99116.13
2019-02-19T12:59:22.056Z,99113.84
2019-02-19T13:01:50.849Z,99105.66
2019-02-19T13:04:19.627Z,99113.47
2019-02-19T13:06:48.441Z,99105.70
2019-02-19T13:09:17.218Z,99103.31
2019-02-19T13:11:46.010Z,99100.98
2019-02-19T13:14:14.798Z,99102.84
2019-02-19T13:16:43.592Z,99100.25
2019-02-19T13:19:12.444Z,99106.96
2019-02-19T13:21:41.255Z,99100.16
2019-02-19T13:24:10.019Z,99102.00
2019-02-19T13:26:38.793Z,99106.64
2019-02-19T13:29:07.591Z,99095.84
2019-02-19T13:31:36.378Z,99105.20
2019-02-19T13:34:05.313Z,99102.61
2019-02-19T13:36:34.956Z,99101.33
2019-02-19T13:39:05.416Z,99098.88
2019-02-19T13:41:37.022Z,99103.69
2019-02-19T13:44:05.918Z,99099.11
2019-02-19T13:46:35.342Z,99096.08
2019-02-19T13:49:11.850Z,99094.28
2019-02-19T13:51:35.649Z,99090.78
2019-02-19T13:54:11.940Z,99091.92
2019-02-19T13:56:40.736Z,99088.16
2019-02-19T13:59:09.537Z,99085.52
2019-02-19T14:01:38.393Z,99089.20
2019-02-19T14:04:07.180Z,99098.77
2019-02-19T14:06:36.125Z,99097.73
2019-02-19T14:09:05.996Z,99091.43
2019-02-19T14:11:34.927Z,99095.87
2019-02-19T14:14:19.721Z,99098.67
2019-02-19T14:16:54.858Z,99104.22
2019-02-19T14:19:57.945Z,99108.25
2019-02-19T14:22:45.836Z,99111.16
2019-02-19T14:25:48.725Z,99106.98
2019-02-19T14:28:35.406Z,99096.13
2019-02-19T14:31:29.603Z,99104.00
2019-02-19T14:34:17.563Z,99102.02
2019-02-19T14:36:56.052Z,99098.87
2019-02-19T14:39:42.781Z,99104.83
2019-02-19T14:42:25.812Z,99103.31
2019-02-19T14:45:16.505Z,99102.73
2019-02-19T14:48:13.713Z,99102.84
2019-02-19T14:51:04.343Z,99102.84
2019-02-19T14:54:04.292Z,99103.27
2019-02-19T14:56:54.849Z,99102.54
2019-02-19T14:59:39.852Z,99100.09
2019-02-19T15:02:27.844Z,99093.02
2019-02-19T15:05:15.005Z,99100.03
2019-02-19T15:08:01.029Z,99094.97
2019-02-19T15:10:37.841Z,99091.50
2019-02-19T15:13:19.315Z,99089.73
2019-02-19T15:16:10.193Z,99092.38
2019-02-19T15:18:56.930Z,99098.55
2019-02-19T15:21:43.383Z,99099.78
2019-02-19T15:24:33.007Z,99102.69
2019-02-19T15:27:14.565Z,99108.22
2019-02-19T15:30:01.290Z,99106.32
2019-02-19T15:32:43.817Z,99105.62
2019-02-19T15:35:30.524Z,99099.48
2019-02-19T15:38:17.214Z,99097.98
2019-02-19T15:40:57.836Z,99096.67
2019-02-19T15:43:37.010Z,99100.30
2019-02-19T15:46:23.789Z,99092.93
2019-02-19T15:49:29.842Z,99098.80
2019-02-19T15:52:32.898Z,99102.27
2019-02-19T15:55:32.549Z,99104.13
2019-02-19T15:58:19.191Z,99101.81
2019-02-19T16:01:16.226Z,99098.64
2019-02-19T16:03:51.022Z,99101.50
2019-02-19T16:06:33.266Z,99107.55
2019-02-19T16:09:12.701Z,99106.31
2019-02-19T16:11:49.831Z,99101.66
2019-02-19T16:14:25.568Z,99101.13
2019-02-19T16:17:13.436Z,99102.08
2019-02-19T16:19:59.631Z,99102.40
2019-02-19T16:22:56.465Z,99106.95
2019-02-19T16:25:35.971Z,99111.58
2019-02-19T16:28:13.528Z,99106.86
2019-02-19T16:31:00.373Z,99106.17
2019-02-19T16:33:45.751Z,99105.79
2019-02-19T16:36:36.628Z,99104.19
2019-02-19T16:39:34.756Z,99115.25
2019-02-19T16:42:21.705Z,99114.00
2019-02-19T16:45:15.639Z,99111.84
2019-02-19T16:48:02.277Z,99114.66
2019-02-19T16:50:41.560Z,99116.13
2019-02-19T16:53:38.718Z,99117.11
2019-02-19T16:56:16.328Z,99125.88
2019-02-19T16:58:54.553Z,99127.55
2019-02-19T17:01:40.989Z,99135.80
2019-02-19T17:04:19.707Z,99134.63
2019-02-19T17:06:58.646Z,99131.05
2019-02-19T17:09:36.955Z,99124.86
2019-02-19T17:12:17.858Z,99128.72
2019-02-19T17:15:08.714Z,99128.16
2019-02-19T17:17:55.155Z,99135.05
2019-02-19T17:20:33.521Z,99140.13
2019-02-19T17:23:16.467Z,99136.32
2019-02-19T17:25:56.666Z,99147.08
2019-02-19T17:28:31.240Z,99149.39
2019-02-19T17:31:22.217Z,99147.63
2019-02-19T17:34:10.076Z,99144.60
2019-02-19T17:37:07.055Z,99147.96
2019-02-19T17:39:41.113Z,99153.48
2019-02-19T17:42:14.838Z,99151.03
2019-02-19T17:44:58.991Z,99159.17
2019-02-19T17:47:46.942Z,99157.95
2019-02-19T17:50:38.406Z,99160.28
2019-02-19T17:53:14.972Z,99154.86
2019-02-19T17:56:09.461Z,99161.21
2019-02-19T17:58:57.845Z,99164.93
2019-02-19T18:01:41.893Z,99156.89
2019-02-19T18:04:21.426Z,99162.66
2019-02-19T18:07:12.245Z,99177.48
2019-02-19T18:10:04.729Z,99173.26
2019-02-19T18:12:51.301Z,99172.83
2019-02-19T18:15:33.226Z,99177.99
2019-02-19T18:18:17.619Z,99173.45
2019-02-19T18:20:47.758Z,99177.34
2019-02-19T18:23:16.933Z,99177.05
2019-02-19T18:25:46.062Z,99181.52
2019-02-19T18:28:14.850Z,99189.62
2019-02-19T18:30:43.706Z,99186.67
2019-02-19T18:33:12.629Z,99183.91
2019-02-19T18:35:41.389Z,99186.61
2019-02-19T18:38:10.255Z,99187.31
2019-02-19T18:40:39.105Z,99186.49
2019-02-19T18:43:08.020Z,99188.49
2019-02-19T18:45:36.917Z,99195.16
2019-02-19T18:48:05.789Z,99191.08
2019-02-19T18:50:34.679Z,99189.16
2019-02-19T18:53:03.462Z,99192.80
2019-02-19T18:55:32.253Z,99199.19
2019-02-19T18:58:01.049Z,99197.25
2019-02-19T19:00:29.914Z,99193.75
2019-02-19T19:02:58.709Z,99189.69
2019-02-19T19:05:27.492Z,99192.87
2019-02-19T19:07:56.666Z,99198.23
2019-02-19T19:10:25.448Z,99199.00
2019-02-19T19:12:54.257Z,99203.00
2019-02-19T19:15:23.058Z,99200.56
2019-02-19T19:17:51.925Z,99216.43
2019-02-19T19:20:20.745Z,99214.90
2019-02-19T19:22:49.535Z,99217.59
2019-02-19T19:25:18.388Z,99210.93
2019-02-19T19:27:47.184Z,99209.41
2019-02-19T19:30:16.157Z,99212.20
2019-02-19T19:32:44.953Z,99217.73
2019-02-19T19:35:13.892Z,99221.56
2019-02-19T19:37:42.716Z,99223.71
2019-02-19T19:40:11.515Z,99222.23
2019-02-19T19:42:40.310Z,99214.81
2019-02-19T19:45:09.396Z,99220.94
2019-02-19T19:47:38.259Z,99214.19
2019-02-19T19:50:07.764Z,99219.20
2019-02-19T19:52:36.580Z,99228.17
2019-02-19T19:55:05.811Z,99226.05
2019-02-19T19:57:34.689Z,99224.83
2019-02-19T20:00:03.977Z,99230.87
2019-02-19T20:02:32.874Z,99230.80
2019-02-19T20:05:01.771Z,99234.02
2019-02-19T20:07:30.607Z,99242.53
2019-02-19T20:09:59.406Z,99231.64
2019-02-19T20:12:28.203Z,99240.68
2019-02-19T20:14:57.062Z,99245.12
2019-02-19T20:17:25.923Z,99248.05
2019-02-19T20:19:54.717Z,99246.02
2019-02-19T20:22:23.667Z,99248.34
2019-02-19T20:24:52.794Z,99252.93
2019-02-19T20:27:21.646Z,99253.98
2019-02-19T20:29:50.578Z,99259.08
2019-02-19T20:32:20.103Z,99255.78
2019-02-19T20:34:48.907Z,99256.39
2019-02-19T20:37:17.715Z,99260.78
2019-02-19T20:39:46.509Z,99261.43
2019-02-19T20:42:15.303Z,99264.80
2019-02-19T20:44:44.126Z,99267.17
2019-02-19T20:47:12.931Z,99275.89
2019-02-19T20:49:41.731Z,99278.74
2019-02-19T20:52:10.598Z,99283.92
2019-02-19T20:54:39.381Z,99283.95
2019-02-19T20:57:08.289Z,99284.98
2019-02-19T20:59:37.149Z,99289.58
2019-02-19T21:02:06.294Z,99292.27
2019-02-19T21:04:35.167Z,99294.02
2019-02-19T21:07:04.122Z,99292.91
2019-02-19T21:09:43.210Z,99300.84
2019-02-19T21:12:03.515Z,99296.27
2019-02-19T21:14:32.335Z,99296.48
2019-02-19T21:17:01.211Z,99296.67
2019-02-19T21:19:30.019Z,99301.88
2019-02-19T21:21:58.818Z,99297.18
2019-02-19T21:24:27.647Z,99302.46
2019-02-19T21:26:56.517Z,99300.05
2019-02-19T21:29:25.306Z,99300.73
2019-02-19T21:31:54.117Z,99294.77
2019-02-19T21:34:22.904Z,99297.39
2019-02-19T21:36:51.976Z,99302.86
2019-02-19T21:39:20.834Z,99300.05
2019-02-19T21:41:49.663Z,99290.63
2019-02-19T21:44:18.838Z,99293.02
2019-02-19T21:46:47.711Z,99290.46
2019-02-19T21:49:16.508Z,99286.56
2019-02-19T21:51:53.695Z,99299.95
2019-02-19T21:54:15.816Z,99302.02
2019-02-19T21:56:44.832Z,99303.27
2019-02-19T22:02:38.157Z,99300.29
2019-02-19T22:05:07.388Z,99310.39
2019-02-19T22:07:36.437Z,99308.67
2019-02-19T22:10:05.442Z,99300.52
2019-02-19T22:12:34.331Z,99300.52
2019-02-19T22:15:03.202Z,99301.67
2019-02-19T22:17:32.078Z,99304.34
2019-02-19T22:20:03.034Z,99301.19
2019-02-19T22:22:33.269Z,99304.86
2019-02-19T22:25:02.081Z,99306.23
2019-02-19T22:27:30.869Z,99304.49
2019-02-19T22:29:59.754Z,99306.73
2019-02-19T22:32:28.527Z,99303.58
2019-02-19T22:34:57.317Z,99304.27
2019-02-19T22:37:26.376Z,99309.73
2019-02-19T22:39:55.167Z,99307.65
2019-02-19T22:42:24.005Z,99306.57
2019-02-19T22:44:52.830Z,99302.42
2019-02-19T22:47:21.654Z,99303.69
2019-02-19T22:49:50.524Z,99303.83
2019-02-19T22:52:19.330Z,99306.94
2019-02-19T22:54:53.576Z,99301.17
2019-02-19T22:57:22.391Z,99296.91
2019-02-19T22:59:51.180Z,99299.60
2019-02-19T23:02:26.135Z,99303.64
2019-02-19T23:04:55.041Z,99306.64
2019-02-19T23:07:24.751Z,99302.13
2019-02-19T23:09:53.624Z,99312.41
2019-02-19T23:12:22.497Z,99316.00
2019-02-19T23:14:51.308Z,99312.77
2019-02-19T23:17:20.226Z,99313.03
2019-02-19T23:19:49.030Z,99311.74
2019-02-19T23:22:21.538Z,99314.22
2019-02-19T23:24:50.370Z,99314.36
2019-02-19T23:27:19.014Z,99319.90
2019-02-19T23:29:47.864Z,99316.39
2019-02-19T23:32:16.661Z,99316.88
2019-02-19T23:34:46.637Z,99317.81
2019-02-19T23:37:18.166Z,99316.75
2019-02-19T23:39:46.969Z,99313.28
2019-02-19T23:42:15.807Z,99314.83
2019-02-19T23:44:44.598Z,99307.27
2019-02-19T23:47:13.381Z,99320.45
2019-02-19T23:49:42.214Z,99320.89
2019-02-19T23:52:11.002Z,99327.52
2019-02-19T23:54:39.813Z,99324.20
2019-02-19T23:57:08.605Z,99319.98
2019-02-19T23:59:37.888Z,99313.83
